ETOU/WIE METAR and TAF weather

Enter ICAO airport designator
Station Type Date Time Source
ETOU METAR 2021/01/16 01:56 UTC NOAA

ETOU 160156Z AUTO 33005KT 9999 OVC045 00/M06 A3036 RMK AO2 SLP292 T00021056 $


Station Type Date Time Source
ETOU Decoded METAR 2021/01/16 01:56 UTC NOAA

Wiesbaden, Germany (ETOU) 50-03N 008-20E
Jan 15, 2021 - 08:56 PM EST / 2021.01.16 0156 UTC
Wind: from the NNW (330 degrees) at 6 MPH (5 KT):0
Visibility: greater than 7 mile(s):0
Sky conditions: overcast
Temperature: 32.4 F (0.2 C)
Windchill: 26 F (-3 C):1
Dew Point: 21.9 F (-5.6 C)
Relative Humidity: 64%
Pressure (altimeter): 30.36 in. Hg (1028 hPa)
ob: ETOU 160156Z AUTO 33005KT 9999 OVC045 00/M06 A3036 RMK AO2 SLP292 T00021056
cycle: 2

Station Type Date Time Source
ETOU TAF 2021/01/15 20:06 UTC NOAA

TAF
AMD ETOU 152000Z 1520/1619 02009KT 9999 BKN025 QNH3027INS
BECMG 1523/1524 VRB06KT 8000 BR BKN015 QNH3032INS
BECMG 1608/1609 VRB06KT 9999 NSW BKN020 QNH3028INS TX01/1520Z TNM03/1521Z LAST NO
AMDS AFT 1520 NEXT 1621

Example: see airport list